sensor_id;sensor_type;location;lat;lon;timestamp;temperature;humidity
20459;DHT22;10388;52.314;7.938;2022-09-21T00:00:02;6.50;99.90
20459;DHT22;10388;52.314;7.938;2022-09-21T00:02:33;6.50;99.90
20459;DHT22;10388;52.314;7.938;2022-09-21T00:05:04;6.40;99.90
20459;DHT22;10388;52.314;7.938;2022-09-21T00:07:35;6.40;99.90
20459;DHT22;10388;52.314;7.938;2022-09-21T00:10:06;6.40;99.90
20459;DHT22;10388;52.314;7.938;2022-09-21T00:12:45;6.30;99.90
20459;DHT22;10388;52.314;7.938;2022-09-21T00:15:18;6.30;99.90
20459;DHT22;10388;52.314;7.938;2022-09-21T00:18:22;6.30;99.90
20459;DHT22;10388;52.314;7.938;2022-09-21T00:21:23;6.30;99.90
20459;DHT22;10388;52.314;7.938;2022-09-21T00:24:28;6.30;99.90
20459;DHT22;10388;52.314;7.938;2022-09-21T00:30:41;6.20;99.90
20459;DHT22;10388;52.314;7.938;2022-09-21T00:37:06;6.10;99.90
20459;DHT22;10388;52.314;7.938;2022-09-21T00:39:46;6.10;99.90
20459;DHT22;10388;52.314;7.938;2022-09-21T00:42:48;6.10;99.90
20459;DHT22;10388;52.314;7.938;2022-09-21T00:45:36;6.00;99.90
20459;DHT22;10388;52.314;7.938;2022-09-21T00:48:45;6.00;99.90
20459;DHT22;10388;52.314;7.938;2022-09-21T00:51:28;6.00;99.90
20459;DHT22;10388;52.314;7.938;2022-09-21T00:54:15;5.90;99.90
20459;DHT22;10388;52.314;7.938;2022-09-21T00:57:14;5.90;99.90
20459;DHT22;10388;52.314;7.938;2022-09-21T01:00:14;5.90;99.90
20459;DHT22;10388;52.314;7.938;2022-09-21T01:03:31;5.80;99.90
20459;DHT22;10388;52.314;7.938;2022-09-21T01:06:05;5.80;99.90
20459;DHT22;10388;52.314;7.938;2022-09-21T01:08:48;5.80;99.90
20459;DHT22;10388;52.314;7.938;2022-09-21T01:17:39;5.70;99.90
20459;DHT22;10388;52.314;7.938;2022-09-21T01:21:04;5.70;99.90
20459;DHT22;10388;52.314;7.938;2022-09-21T01:30:27;5.70;99.90
20459;DHT22;10388;52.314;7.938;2022-09-21T01:36:16;5.70;99.90
20459;DHT22;10388;52.314;7.938;2022-09-21T01:39:04;5.60;99.90
20459;DHT22;10388;52.314;7.938;2022-09-21T01:42:08;5.60;99.90
20459;DHT22;10388;52.314;7.938;2022-09-21T01:44:46;5.50;99.90
20459;DHT22;10388;52.314;7.938;2022-09-21T01:47:27;5.50;99.90
20459;DHT22;10388;52.314;7.938;2022-09-21T01:50:58;5.50;99.90
20459;DHT22;10388;52.314;7.938;2022-09-21T01:54:08;5.40;99.90
20459;DHT22;10388;52.314;7.938;2022-09-21T01:57:25;5.40;
20459;DHT22;10388;52.314;7.938;2022-09-21T02:00:25;5.40;99.90
20459;DHT22;10388;52.314;7.938;2022-09-21T02:06:41;5.40;99.90
20459;DHT22;10388;52.314;7.938;2022-09-21T02:09:29;5.40;99.90
20459;DHT22;10388;52.314;7.938;2022-09-21T02:12:06;5.30;99.90
20459;DHT22;10388;52.314;7.938;2022-09-21T02:14:52;5.30;99.90
20459;DHT22;10388;52.314;7.938;2022-09-21T02:30:43;5.20;99.90
20459;DHT22;10388;52.314;7.938;2022-09-21T02:37:08;5.10;99.90
20459;DHT22;10388;52.314;7.938;2022-09-21T02:40:16;5.10;99.90
20459;DHT22;10388;52.314;7.938;2022-09-21T02:49:51;5.10;99.90
20459;DHT22;10388;52.314;7.938;2022-09-21T02:53:17;5.10;99.90
20459;DHT22;10388;52.314;7.938;2022-09-21T02:59:16;5.00;99.90
20459;DHT22;10388;52.314;7.938;2022-09-21T03:02:08;5.00;99.90
20459;DHT22;10388;52.314;7.938;2022-09-21T03:04:55;5.00;99.90
20459;DHT22;10388;52.314;7.938;2022-09-21T03:07:31;5.00;99.90
20459;DHT22;10388;52.314;7.938;2022-09-21T03:10:36;5.00;99.90
20459;DHT22;10388;52.314;7.938;2022-09-21T03:16:45;4.90;99.90
20459;DHT22;10388;52.314;7.938;2022-09-21T03:19:38;4.80;99.90
20459;DHT22;10388;52.314;7.938;2022-09-21T03:22:22;4.80;99.90
20459;DHT22;10388;52.314;7.938;2022-09-21T03:25:48;4.80;99.90
20459;DHT22;10388;52.314;7.938;2022-09-21T03:28:43;4.80;99.90
20459;DHT22;10388;52.314;7.938;2022-09-21T03:34:46;4.80;99.90
20459;DHT22;10388;52.314;7.938;2022-09-21T03:37:49;4.80;99.90
20459;DHT22;10388;52.314;7.938;2022-09-21T03:40:57;4.70;99.90
20459;DHT22;10388;52.314;7.938;2022-09-21T03:53:42;4.70;99.90
20459;DHT22;10388;52.314;7.938;2022-09-21T03:59:59;4.60;99.90
20459;DHT22;10388;52.314;7.938;2022-09-21T04:02:59;4.60;99.90
20459;DHT22;10388;52.314;7.938;2022-09-21T04:08:55;4.60;99.90
20459;DHT22;10388;52.314;7.938;2022-09-21T04:11:54;4.60;99.90
20459;DHT22;10388;52.314;7.938;2022-09-21T04:18:04;4.50;99.90
20459;DHT22;10388;52.314;7.938;2022-09-21T04:20:40;4.50;99.90
20459;DHT22;10388;52.314;7.938;2022-09-21T04:23:46;4.50;99.90
20459;DHT22;10388;52.314;7.938;2022-09-21T04:30:32;4.50;99.90
20459;DHT22;10388;52.314;7.938;2022-09-21T04:33:34;4.50;99.90
20459;DHT22;10388;52.314;7.938;2022-09-21T04:39:28;4.50;99.90
20459;DHT22;10388;52.314;7.938;2022-09-21T04:42:14;4.40;99.90
20459;DHT22;10388;52.314;7.938;2022-09-21T04:45:07;4.40;99.90
20459;DHT22;10388;52.314;7.938;2022-09-21T04:48:11;4.40;99.90
20459;DHT22;10388;52.314;7.938;2022-09-21T04:50:55;4.40;99.90
20459;DHT22;10388;52.314;7.938;2022-09-21T04:53:41;4.30;99.90
20459;DHT22;10388;52.314;7.938;2022-09-21T05:06:04;4.20;99.90
20459;DHT22;10388;52.314;7.938;2022-09-21T05:08:55;4.30;99.90
20459;DHT22;10388;52.314;7.938;2022-09-21T05:12:01;4.30;99.90
20459;DHT22;10388;52.314;7.938;2022-09-21T05:14:41;4.20;99.90
20459;DHT22;10388;52.314;7.938;2022-09-21T05:17:41;4.30;99.90
20459;DHT22;10388;52.314;7.938;2022-09-21T05:23:33;4.20;99.90
20459;DHT22;10388;52.314;7.938;2022-09-21T05:26:26;4.20;99.90
20459;DHT22;10388;52.314;7.938;2022-09-21T05:29:11;4.20;99.90
20459;DHT22;10388;52.314;7.938;2022-09-21T05:51:12;4.30;99.90
20459;DHT22;10388;52.314;7.938;2022-09-21T05:54:29;4.40;99.90
20459;DHT22;10388;52.314;7.938;2022-09-21T06:07:39;4.50;99.90
20459;DHT22;10388;52.314;7.938;2022-09-21T06:10:15;4.50;99.90
20459;DHT22;10388;52.314;7.938;2022-09-21T06:13:02;4.70;99.90
20459;DHT22;10388;52.314;7.938;2022-09-21T06:21:32;4.90;99.90
20459;DHT22;10388;52.314;7.938;2022-09-21T06:24:28;4.90;99.90
20459;DHT22;10388;52.314;7.938;2022-09-21T06:27:17;5.00;99.90
20459;DHT22;10388;52.314;7.938;2022-09-21T06:30:04;5.10;99.90
20459;DHT22;10388;52.314;7.938;2022-09-21T06:33:10;5.20;99.90
20459;DHT22;10388;52.314;7.938;2022-09-21T06:36:07;5.30;99.90
20459;DHT22;10388;52.314;7.938;2022-09-21T06:41:54;5.50;99.90
20459;DHT22;10388;52.314;7.938;2022-09-21T06:44:30;5.60;99.90
20459;DHT22;10388;52.314;7.938;2022-09-21T06:47:09;5.70;99.90
20459;DHT22;10388;52.314;7.938;2022-09-21T06:50:37;5.80;99.90
20459;DHT22;10388;52.314;7.938;2022-09-21T06:56:33;6.10;99.90
20459;DHT22;10388;52.314;7.938;2022-09-21T06:59:34;6.20;99.90
20459;DHT22;10388;52.314;7.938;2022-09-21T07:02:11;6.40;99.90
20459;DHT22;10388;52.314;7.938;2022-09-21T07:05:27;6.50;99.90
20459;DHT22;10388;52.314;7.938;2022-09-21T07:11:39;6.80;99.90
20459;DHT22;10388;52.314;7.938;2022-09-21T07:14:19;6.90;99.90
20459;DHT22;10388;52.314;7.938;2022-09-21T07:16:56;7.00;99.90
20459;DHT22;10388;52.314;7.938;2022-09-21T07:20:02;7.20;99.90
20459;DHT22;10388;52.314;7.938;2022-09-21T07:26:11;7.40;99.90
20459;DHT22;10388;52.314;7.938;2022-09-21T07:29:17;7.60;99.90
20459;DHT22;10388;52.314;7.938;2022-09-21T07:31:55;7.70;99.90
20459;DHT22;10388;52.314;7.938;2022-09-21T07:38:21;7.90;99.90
20459;DHT22;10388;52.314;7.938;2022-09-21T07:41:10;8.10;99.90
20459;DHT22;10388;52.314;7.938;2022-09-21T07:43:52;8.30;99.90
20459;DHT22;10388;52.314;7.938;2022-09-21T07:46:47;8.40;99.90
20459;DHT22;10388;52.314;7.938;2022-09-21T07:49:17;8.60;99.90
20459;DHT22;10388;52.314;7.938;2022-09-21T07:51:48;8.80;99.90
20459;DHT22;10388;52.314;7.938;2022-09-21T07:54:19;8.90;99.90
20459;DHT22;10388;52.314;7.938;2022-09-21T07:56:49;9.00;99.90
20459;DHT22;10388;52.314;7.938;2022-09-21T07:59:38;9.10;99.90
20459;DHT22;10388;52.314;7.938;2022-09-21T08:02:09;9.30;99.90
20459;DHT22;10388;52.314;7.938;2022-09-21T08:04:40;9.30;99.90
20459;DHT22;10388;52.314;7.938;2022-09-21T08:07:10;9.50;99.90
20459;DHT22;10388;52.314;7.938;2022-09-21T08:09:41;9.70;99.90
20459;DHT22;10388;52.314;7.938;2022-09-21T08:12:12;9.80;99.90
20459;DHT22;10388;52.314;7.938;2022-09-21T08:14:43;9.90;99.90
20459;DHT22;10388;52.314;7.938;2022-09-21T08:17:13;10.00;99.90
20459;DHT22;10388;52.314;7.938;2022-09-21T08:19:44;10.10;99.90
20459;DHT22;10388;52.314;7.938;2022-09-21T08:22:14;10.30;99.90
20459;DHT22;10388;52.314;7.938;2022-09-21T08:24:45;10.30;99.90
20459;DHT22;10388;52.314;7.938;2022-09-21T08:27:17;10.50;99.90
20459;DHT22;10388;52.314;7.938;2022-09-21T08:29:49;10.60;99.90
20459;DHT22;10388;52.314;7.938;2022-09-21T08:32:20;10.70;99.90
20459;DHT22;10388;52.314;7.938;2022-09-21T08:34:51;10.80;99.90
20459;DHT22;10388;52.314;7.938;2022-09-21T08:37:22;11.00;99.90
20459;DHT22;10388;52.314;7.938;2022-09-21T08:40:04;11.10;99.90
20459;DHT22;10388;52.314;7.938;2022-09-21T08:42:44;11.20;99.90
20459;DHT22;10388;52.314;7.938;2022-09-21T08:45:20;11.30;99.90
20459;DHT22;10388;52.314;7.938;2022-09-21T08:47:55;11.40;99.90
20459;DHT22;10388;52.314;7.938;2022-09-21T08:53:12;11.60;99.90
20459;DHT22;10388;52.314;7.938;2022-09-21T08:55:44;11.70;99.90
20459;DHT22;10388;52.314;7.938;2022-09-21T08:58:26;11.80;99.90
20459;DHT22;10388;52.314;7.938;2022-09-21T09:03:55;11.90;99.90
20459;DHT22;10388;52.314;7.938;2022-09-21T09:09:48;12.20;99.90
20459;DHT22;10388;52.314;7.938;2022-09-21T09:15:27;12.40;99.90
20459;DHT22;10388;52.314;7.938;2022-09-21T09:21:05;12.60;99.90
20459;DHT22;10388;52.314;7.938;2022-09-21T09:23:53;12.70;99.90
20459;DHT22;10388;52.314;7.938;2022-09-21T09:26:32;12.80;99.90
20459;DHT22;10388;52.314;7.938;2022-09-21T09:29:28;12.90;99.90
20459;DHT22;10388;52.314;7.938;2022-09-21T09:32:00;13.00;99.90
20459;DHT22;10388;52.314;7.938;2022-09-21T09:34:35;13.10;99.90
20459;DHT22;10388;52.314;7.938;2022-09-21T09:37:16;13.20;99.90
20459;DHT22;10388;52.314;7.938;2022-09-21T09:39:52;13.30;99.90
20459;DHT22;10388;52.314;7.938;2022-09-21T09:45:22;13.50;99.90
20459;DHT22;10388;52.314;7.938;2022-09-21T09:50:34;13.70;99.90
20459;DHT22;10388;52.314;7.938;2022-09-21T09:53:08;13.50;99.90
20459;DHT22;10388;52.314;7.938;2022-09-21T09:55:42;13.30;99.90
20459;DHT22;10388;52.314;7.938;2022-09-21T09:58:20;13.20;99.90
20459;DHT22;10388;52.314;7.938;2022-09-21T10:00:53;13.10;99.90
20459;DHT22;10388;52.314;7.938;2022-09-21T10:03:26;13.10;99.90
20459;DHT22;10388;52.314;7.938;2022-09-21T10:05:56;13.10;99.90
20459;DHT22;10388;52.314;7.938;2022-09-21T10:11:13;13.10;99.90
20459;DHT22;10388;52.314;7.938;2022-09-21T10:13:46;13.00;99.90
20459;DHT22;10388;52.314;7.938;2022-09-21T10:21:33;13.30;99.90
20459;DHT22;10388;52.314;7.938;2022-09-21T10:24:14;13.30;99.90
20459;DHT22;10388;52.314;7.938;2022-09-21T10:26:50;13.20;99.90
20459;DHT22;10388;52.314;7.938;2022-09-21T10:31:57;13.30;99.90
20459;DHT22;10388;52.314;7.938;2022-09-21T10:34:30;13.60;99.90
20459;DHT22;10388;52.314;7.938;2022-09-21T10:37:22;13.70;99.90
20459;DHT22;10388;52.314;7.938;2022-09-21T10:39:52;13.60;99.90
20459;DHT22;10388;52.314;7.938;2022-09-21T10:42:23;13.70;99.90
20459;DHT22;10388;52.314;7.938;2022-09-21T10:45:15;13.60;99.90
20459;DHT22;10388;52.314;7.938;2022-09-21T10:47:50;13.50;99.90
20459;DHT22;10388;52.314;7.938;2022-09-21T10:50:28;13.40;99.90
20459;DHT22;10388;52.314;7.938;2022-09-21T10:53:09;13.40;99.90
20459;DHT22;10388;52.314;7.938;2022-09-21T10:56:05;13.30;99.90
20459;DHT22;10388;52.314;7.938;2022-09-21T10:58:36;13.70;99.90
20459;DHT22;10388;52.314;7.938;2022-09-21T11:01:11;13.90;99.90
20459;DHT22;10388;52.314;7.938;2022-09-21T11:03:56;14.10;99.90
20459;DHT22;10388;52.314;7.938;2022-09-21T11:06:36;14.00;99.90
20459;DHT22;10388;52.314;7.938;2022-09-21T11:15:22;14.20;99.90
20459;DHT22;10388;52.314;7.938;2022-09-21T11:23:54;14.70;99.90
20459;DHT22;10388;52.314;7.938;2022-09-21T11:26:43;14.90;99.90
20459;DHT22;10388;52.314;7.938;2022-09-21T11:29:23;15.10;99.90
20459;DHT22;10388;52.314;7.938;2022-09-21T11:32:08;15.30;99.90
20459;DHT22;10388;52.314;7.938;2022-09-21T11:37:39;15.60;99.90
20459;DHT22;10388;52.314;7.938;2022-09-21T11:46:12;16.00;99.90
20459;DHT22;10388;52.314;7.938;2022-09-21T11:49:11;16.10;99.90
20459;DHT22;10388;52.314;7.938;2022-09-21T12:04:12;16.20;99.90
20459;DHT22;10388;52.314;7.938;2022-09-21T12:06:50;16.00;99.90
20459;DHT22;10388;52.314;7.938;2022-09-21T12:09:39;16.00;99.90
20459;DHT22;10388;52.314;7.938;2022-09-21T12:12:31;15.70;99.90
20459;DHT22;10388;52.314;7.938;2022-09-21T12:15:33;15.50;99.90
20459;DHT22;10388;52.314;7.938;2022-09-21T12:18:44;15.30;99.90
20459;DHT22;10388;52.314;7.938;2022-09-21T12:24:04;15.30;99.90
20459;DHT22;10388;52.314;7.938;2022-09-21T12:26:41;15.20;99.90
20459;DHT22;10388;52.314;7.938;2022-09-21T12:29:18;15.20;99.90
20459;DHT22;10388;52.314;7.938;2022-09-21T12:34:45;15.30;99.90
20459;DHT22;10388;52.314;7.938;2022-09-21T12:37:30;15.30;99.90
20459;DHT22;10388;52.314;7.938;2022-09-21T12:40:18;15.40;99.90
20459;DHT22;10388;52.314;7.938;2022-09-21T12:43:31;15.60;99.90
20459;DHT22;10388;52.314;7.938;2022-09-21T12:45:55;15.50;99.90
20459;DHT22;10388;52.314;7.938;2022-09-21T12:48:33;15.60;99.90
20459;DHT22;10388;52.314;7.938;2022-09-21T12:53:35;15.70;99.90
20459;DHT22;10388;52.314;7.938;2022-09-21T13:13:34;15.50;99.90
20459;DHT22;10388;52.314;7.938;2022-09-21T13:16:06;15.50;99.90
20459;DHT22;10388;52.314;7.938;2022-09-21T13:19:00;15.70;99.90
20459;DHT22;10388;52.314;7.938;2022-09-21T13:21:32;15.60;99.90
20459;DHT22;10388;52.314;7.938;2022-09-21T13:24:04;15.60;99.90
20459;DHT22;10388;52.314;7.938;2022-09-21T13:26:43;15.40;99.90
20459;DHT22;10388;52.314;7.938;2022-09-21T13:31:56;15.10;99.90
20459;DHT22;10388;52.314;7.938;2022-09-21T13:34:37;15.10;99.90
20459;DHT22;10388;52.314;7.938;2022-09-21T13:47:53;15.30;99.90
20459;DHT22;10388;52.314;7.938;2022-09-21T13:50:40;15.20;99.90
20459;DHT22;10388;52.314;7.938;2022-09-21T13:53:22;15.20;99.90
20459;DHT22;10388;52.314;7.938;2022-09-21T13:56:13;15.20;99.90
20459;DHT22;10388;52.314;7.938;2022-09-21T13:58:48;15.30;99.90
20459;DHT22;10388;52.314;7.938;2022-09-21T14:01:32;15.50;99.90
20459;DHT22;10388;52.314;7.938;2022-09-21T14:04:16;15.50;99.90
20459;DHT22;10388;52.314;7.938;2022-09-21T14:06:49;15.50;99.90
20459;DHT22;10388;52.314;7.938;2022-09-21T14:09:29;15.60;99.90
20459;DHT22;10388;52.314;7.938;2022-09-21T14:12:03;15.60;99.90
20459;DHT22;10388;52.314;7.938;2022-09-21T14:14:37;15.50;99.90
20459;DHT22;10388;52.314;7.938;2022-09-21T14:17:34;15.40;99.90
20459;DHT22;10388;52.314;7.938;2022-09-21T14:20:28;15.20;99.90
20459;DHT22;10388;52.314;7.938;2022-09-21T14:23:26;15.10;99.90
20459;DHT22;10388;52.314;7.938;2022-09-21T14:25:59;15.10;99.90
20459;DHT22;10388;52.314;7.938;2022-09-21T14:28:42;15.00;99.90
20459;DHT22;10388;52.314;7.938;2022-09-21T14:31:17;15.00;99.90
20459;DHT22;10388;52.314;7.938;2022-09-21T14:33:51;15.00;99.90
20459;DHT22;10388;52.314;7.938;2022-09-21T14:36:29;14.90;99.90
20459;DHT22;10388;52.314;7.938;2022-09-21T14:39:05;15.00;99.90
20459;DHT22;10388;52.314;7.938;2022-09-21T14:41:44;15.00;99.90
20459;DHT22;10388;52.314;7.938;2022-09-21T14:44:29;15.10;99.90
20459;DHT22;10388;52.314;7.938;2022-09-21T14:50:08;15.30;99.90
20459;DHT22;10388;52.314;7.938;2022-09-21T14:53:20;15.30;99.90
20459;DHT22;10388;52.314;7.938;2022-09-21T14:56:23;15.30;99.90
20459;DHT22;10388;52.314;7.938;2022-09-21T15:02:28;15.30;99.90
20459;DHT22;10388;52.314;7.938;2022-09-21T15:16:38;15.10;99.90
20459;DHT22;10388;52.314;7.938;2022-09-21T15:19:19;15.00;99.90
20459;DHT22;10388;52.314;7.938;2022-09-21T15:24:30;14.90;99.90
20459;DHT22;10388;52.314;7.938;2022-09-21T15:27:08;14.90;99.90
20459;DHT22;10388;52.314;7.938;2022-09-21T15:29:50;14.90;99.90
20459;DHT22;10388;52.314;7.938;2022-09-21T15:32:42;14.90;99.90
20459;DHT22;10388;52.314;7.938;2022-09-21T15:35:19;14.90;99.90
20459;DHT22;10388;52.314;7.938;2022-09-21T15:37:51;14.90;99.90
20459;DHT22;10388;52.314;7.938;2022-09-21T15:40:27;14.90;99.90
20459;DHT22;10388;52.314;7.938;2022-09-21T15:48:24;14.50;99.90
20459;DHT22;10388;52.314;7.938;2022-09-21T15:51:43;14.40;99.90
20459;DHT22;10388;52.314;7.938;2022-09-21T15:53:56;14.30;99.90
20459;DHT22;10388;52.314;7.938;2022-09-21T15:56:28;14.30;99.90
20459;DHT22;10388;52.314;7.938;2022-09-21T15:59:02;14.20;99.90
20459;DHT22;10388;52.314;7.938;2022-09-21T16:01:46;14.20;99.90
20459;DHT22;10388;52.314;7.938;2022-09-21T16:04:23;14.10;99.90
20459;DHT22;10388;52.314;7.938;2022-09-21T16:09:39;14.00;99.90
20459;DHT22;10388;52.314;7.938;2022-09-21T16:15:00;13.90;99.90
20459;DHT22;10388;52.314;7.938;2022-09-21T16:17:37;13.80;99.90
20459;DHT22;10388;52.314;7.938;2022-09-21T16:20:17;13.80;99.90
20459;DHT22;10388;52.314;7.938;2022-09-21T16:22:51;13.70;99.90
20459;DHT22;10388;52.314;7.938;2022-09-21T16:25:36;13.60;99.90
20459;DHT22;10388;52.314;7.938;2022-09-21T16:30:51;13.60;99.90
20459;DHT22;10388;52.314;7.938;2022-09-21T16:33:40;13.50;99.90
20459;DHT22;10388;52.314;7.938;2022-09-21T16:39:04;13.40;99.90
20459;DHT22;10388;52.314;7.938;2022-09-21T16:41:43;13.40;99.90
20459;DHT22;10388;52.314;7.938;2022-09-21T16:44:21;13.30;99.90
20459;DHT22;10388;52.314;7.938;2022-09-21T16:46:59;13.30;99.90
20459;DHT22;10388;52.314;7.938;2022-09-21T16:49:32;13.20;99.90
20459;DHT22;10388;52.314;7.938;2022-09-21T16:52:04;13.20;99.90
20459;DHT22;10388;52.314;7.938;2022-09-21T16:54:36;13.10;99.90
20459;DHT22;10388;52.314;7.938;2022-09-21T16:57:09;13.10;99.90
20459;DHT22;10388;52.314;7.938;2022-09-21T16:59:42;13.00;99.90
20459;DHT22;10388;52.314;7.938;2022-09-21T17:02:12;13.00;99.90
20459;DHT22;10388;52.314;7.938;2022-09-21T17:04:43;12.90;99.90
20459;DHT22;10388;52.314;7.938;2022-09-21T17:07:15;12.90;99.90
20459;DHT22;10388;52.314;7.938;2022-09-21T17:09:49;12.80;99.90
20459;DHT22;10388;52.314;7.938;2022-09-21T17:12:20;12.70;99.90
20459;DHT22;10388;52.314;7.938;2022-09-21T17:14:51;12.70;99.90
20459;DHT22;10388;52.314;7.938;2022-09-21T17:17:23;12.60;99.90
20459;DHT22;10388;52.314;7.938;2022-09-21T17:19:54;12.50;99.90
20459;DHT22;10388;52.314;7.938;2022-09-21T17:22:24;12.40;99.90
20459;DHT22;10388;52.314;7.938;2022-09-21T17:24:55;12.30;99.90
20459;DHT22;10388;52.314;7.938;2022-09-21T17:27:26;12.20;99.90
20459;DHT22;10388;52.314;7.938;2022-09-21T17:29:58;12.20;99.90
20459;DHT22;10388;52.314;7.938;2022-09-21T17:32:32;12.10;99.90
20459;DHT22;10388;52.314;7.938;2022-09-21T17:35:18;12.10;99.90
20459;DHT22;10388;52.314;7.938;2022-09-21T17:37:51;12.00;99.90
20459;DHT22;10388;52.314;7.938;2022-09-21T17:40:22;11.80;99.90
20459;DHT22;10388;52.314;7.938;2022-09-21T17:45:46;11.70;99.90
20459;DHT22;10388;52.314;7.938;2022-09-21T17:48:20;11.70;99.90
20459;DHT22;10388;52.314;7.938;2022-09-21T17:50:51;11.60;99.90
20459;DHT22;10388;52.314;7.938;2022-09-21T17:53:22;11.50;99.90
20459;DHT22;10388;52.314;7.938;2022-09-21T17:58:56;11.40;99.90
20459;DHT22;10388;52.314;7.938;2022-09-21T18:01:37;11.40;99.90
20459;DHT22;10388;52.314;7.938;2022-09-21T18:04:11;11.40;99.90
20459;DHT22;10388;52.314;7.938;2022-09-21T18:06:42;11.40;99.90
20459;DHT22;10388;52.314;7.938;2022-09-21T18:09:13;11.30;99.90
20459;DHT22;10388;52.314;7.938;2022-09-21T18:20:36;11.00;99.90
20459;DHT22;10388;52.314;7.938;2022-09-21T18:26:01;10.80;99.90
20459;DHT22;10388;52.314;7.938;2022-09-21T18:28:40;10.70;99.90
20459;DHT22;10388;52.314;7.938;2022-09-21T18:31:35;10.70;99.90
20459;DHT22;10388;52.314;7.938;2022-09-21T18:34:34;10.60;99.90
20459;DHT22;10388;52.314;7.938;2022-09-21T18:46:03;10.30;99.90
20459;DHT22;10388;52.314;7.938;2022-09-21T18:54:05;10.20;99.90
20459;DHT22;10388;52.314;7.938;2022-09-21T18:56:38;10.10;99.90
20459;DHT22;10388;52.314;7.938;2022-09-21T18:59:10;10.10;99.90
20459;DHT22;10388;52.314;7.938;2022-09-21T19:01:43;10.00;99.90
20459;DHT22;10388;52.314;7.938;2022-09-21T19:04:14;10.00;99.90
20459;DHT22;10388;52.314;7.938;2022-09-21T19:21:35;9.70;99.90
20459;DHT22;10388;52.314;7.938;2022-09-21T19:24:38;9.70;99.90
20459;DHT22;10388;52.314;7.938;2022-09-21T19:30:11;9.50;99.90
20459;DHT22;10388;52.314;7.938;2022-09-21T19:32:46;9.50;99.90
20459;DHT22;10388;52.314;7.938;2022-09-21T19:35:21;9.40;99.90
20459;DHT22;10388;52.314;7.938;2022-09-21T19:37:54;9.40;99.90
20459;DHT22;10388;52.314;7.938;2022-09-21T19:40:27;9.40;99.90
20459;DHT22;10388;52.314;7.938;2022-09-21T19:43:35;9.40;99.90
20459;DHT22;10388;52.314;7.938;2022-09-21T19:49:13;9.20;99.90
20459;DHT22;10388;52.314;7.938;2022-09-21T19:51:49;9.20;99.90
20459;DHT22;10388;52.314;7.938;2022-09-21T19:54:22;9.20;99.90
20459;DHT22;10388;52.314;7.938;2022-09-21T19:57:17;9.10;99.90
20459;DHT22;10388;52.314;7.938;2022-09-21T20:00:11;9.10;99.90
20459;DHT22;10388;52.314;7.938;2022-09-21T20:03:05;9.00;99.90
20459;DHT22;10388;52.314;7.938;2022-09-21T20:06:03;9.00;99.90
20459;DHT22;10388;52.314;7.938;2022-09-21T20:08:43;8.90;99.90
20459;DHT22;10388;52.314;7.938;2022-09-21T20:14:10;8.80;99.90
20459;DHT22;10388;52.314;7.938;2022-09-21T20:16:52;8.80;99.90
20459;DHT22;10388;52.314;7.938;2022-09-21T20:19:35;8.80;99.90
20459;DHT22;10388;52.314;7.938;2022-09-21T20:27:40;8.70;99.90
20459;DHT22;10388;52.314;7.938;2022-09-21T20:30:15;8.60;99.90
20459;DHT22;10388;52.314;7.938;2022-09-21T20:32:49;8.60;99.90
20459;DHT22;10388;52.314;7.938;2022-09-21T20:35:23;8.60;99.90
20459;DHT22;10388;52.314;7.938;2022-09-21T20:37:54;8.50;99.90
20459;DHT22;10388;52.314;7.938;2022-09-21T20:40:26;8.50;99.90
20459;DHT22;10388;52.314;7.938;2022-09-21T20:42:58;8.40;99.90
20459;DHT22;10388;52.314;7.938;2022-09-21T20:45:30;8.40;99.90
20459;DHT22;10388;52.314;7.938;2022-09-21T20:48:02;8.40;99.90
20459;DHT22;10388;52.314;7.938;2022-09-21T20:50:46;8.30;99.90
20459;DHT22;10388;52.314;7.938;2022-09-21T20:53:18;8.30;99.90
20459;DHT22;10388;52.314;7.938;2022-09-21T20:55:53;8.30;99.90
20459;DHT22;10388;52.314;7.938;2022-09-21T20:58:24;8.20;99.90
20459;DHT22;10388;52.314;7.938;2022-09-21T21:01:02;8.20;99.90
20459;DHT22;10388;52.314;7.938;2022-09-21T21:03:33;8.20;99.90
20459;DHT22;10388;52.314;7.938;2022-09-21T21:06:14;8.10;99.90
20459;DHT22;10388;52.314;7.938;2022-09-21T21:08:47;8.10;99.90
20459;DHT22;10388;52.314;7.938;2022-09-21T21:11:17;8.10;99.90
20459;DHT22;10388;52.314;7.938;2022-09-21T21:13:49;8.00;99.90
20459;DHT22;10388;52.314;7.938;2022-09-21T21:16:20;8.00;99.90
20459;DHT22;10388;52.314;7.938;2022-09-21T21:18:50;7.90;99.90
20459;DHT22;10388;52.314;7.938;2022-09-21T21:21:21;7.90;99.90
20459;DHT22;10388;52.314;7.938;2022-09-21T21:23:54;7.90;99.90
20459;DHT22;10388;52.314;7.938;2022-09-21T21:26:43;7.80;99.90
20459;DHT22;10388;52.314;7.938;2022-09-21T21:29:14;7.80;99.90
20459;DHT22;10388;52.314;7.938;2022-09-21T21:31:48;7.80;99.90
20459;DHT22;10388;52.314;7.938;2022-09-21T21:34:19;7.70;99.90
20459;DHT22;10388;52.314;7.938;2022-09-21T21:36:50;7.70;99.90
20459;DHT22;10388;52.314;7.938;2022-09-21T21:39:20;7.70;99.90
20459;DHT22;10388;52.314;7.938;2022-09-21T21:41:51;7.60;99.90
20459;DHT22;10388;52.314;7.938;2022-09-21T21:44:21;7.60;99.90
20459;DHT22;10388;52.314;7.938;2022-09-21T21:46:52;7.60;99.90
20459;DHT22;10388;52.314;7.938;2022-09-21T21:49:23;7.60;99.90
20459;DHT22;10388;52.314;7.938;2022-09-21T21:51:54;7.50;99.90
20459;DHT22;10388;52.314;7.938;2022-09-21T21:54:24;7.50;99.90
20459;DHT22;10388;52.314;7.938;2022-09-21T21:56:55;7.40;99.90
20459;DHT22;10388;52.314;7.938;2022-09-21T21:59:27;7.40;99.90
20459;DHT22;10388;52.314;7.938;2022-09-21T22:01:57;7.40;99.90
20459;DHT22;10388;52.314;7.938;2022-09-21T22:04:28;7.40;99.90
20459;DHT22;10388;52.314;7.938;2022-09-21T22:06:58;7.30;99.90
20459;DHT22;10388;52.314;7.938;2022-09-21T22:09:29;7.30;99.90
20459;DHT22;10388;52.314;7.938;2022-09-21T22:12:00;7.30;99.90
20459;DHT22;10388;52.314;7.938;2022-09-21T22:14:31;7.20;99.90
20459;DHT22;10388;52.314;7.938;2022-09-21T22:17:02;7.20;99.90
20459;DHT22;10388;52.314;7.938;2022-09-21T22:19:32;7.20;99.90
20459;DHT22;10388;52.314;7.938;2022-09-21T22:22:03;7.20;99.90
20459;DHT22;10388;52.314;7.938;2022-09-21T22:24:33;7.10;99.90
20459;DHT22;10388;52.314;7.938;2022-09-21T22:27:04;7.10;99.90
20459;DHT22;10388;52.314;7.938;2022-09-21T22:29:34;7.10;99.90
20459;DHT22;10388;52.314;7.938;2022-09-21T22:32:05;7.10;99.90
20459;DHT22;10388;52.314;7.938;2022-09-21T22:34:36;7.00;99.90
20459;DHT22;10388;52.314;7.938;2022-09-21T22:37:06;7.00;99.90
20459;DHT22;10388;52.314;7.938;2022-09-21T22:39:37;7.00;99.90
20459;DHT22;10388;52.314;7.938;2022-09-21T22:42:10;6.90;99.90
20459;DHT22;10388;52.314;7.938;2022-09-21T22:44:40;7.00;99.90
20459;DHT22;10388;52.314;7.938;2022-09-21T22:47:11;6.90;99.90
20459;DHT22;10388;52.314;7.938;2022-09-21T22:49:41;6.90;99.90
20459;DHT22;10388;52.314;7.938;2022-09-21T22:52:12;6.90;99.90
20459;DHT22;10388;52.314;7.938;2022-09-21T22:54:42;6.80;99.90
20459;DHT22;10388;52.314;7.938;2022-09-21T22:57:13;6.80;99.90
20459;DHT22;10388;52.314;7.938;2022-09-21T22:59:43;6.80;99.90